Map

Track Data

SID SEASON NUMBER BASIN SUBBASIN NAME ISO_TIME NATURE LAT LON WMO_WIND WMO_PRES WMO_AGENCY TRACK_TYPE DIST2LAND LANDFALL IFLAG USA_AGENCY USA_ATCF_ID USA_LAT USA_LON USA_RECORD USA_STATUS USA_WIND USA_PRES USA_SSHS USA_R34_NE USA_R34_SE USA_R34_SW USA_R34_NW USA_R50_NE USA_R50_SE USA_R50_SW USA_R50_NW USA_R64_NE USA_R64_SE USA_R64_SW USA_R64_NW USA_POCI USA_ROCI USA_RMW USA_EYE TOKYO_LAT TOKYO_LON TOKYO_GRADE TOKYO_WIND TOKYO_PRES TOKYO_R50_DIR TOKYO_R50_LONG TOKYO_R50_SHORT TOKYO_R30_DIR TOKYO_R30_LONG TOKYO_R30_SHORT TOKYO_LAND CMA_LAT CMA_LON CMA_CAT CMA_WIND CMA_PRES HKO_LAT HKO_LON HKO_CAT HKO_WIND HKO_PRES NEWDELHI_LAT NEWDELHI_LON NEWDELHI_GRADE NEWDELHI_WIND NEWDELHI_PRES NEWDELHI_CI NEWDELHI_DP NEWDELHI_POCI REUNION_LAT REUNION_LON REUNION_TYPE REUNION_WIND REUNION_PRES REUNION_TNUM REUNION_CI REUNION_RMW REUNION_R34_NE REUNION_R34_SE REUNION_R34_SW REUNION_R34_NW REUNION_R50_NE REUNION_R50_SE REUNION_R50_SW REUNION_R50_NW REUNION_R64_NE REUNION_R64_SE REUNION_R64_SW REUNION_R64_NW BOM_LAT BOM_LON BOM_TYPE BOM_WIND BOM_PRES BOM_TNUM BOM_CI BOM_RMW BOM_R34_NE BOM_R34_SE BOM_R34_SW BOM_R34_NW BOM_R50_NE BOM_R50_SE BOM_R50_SW BOM_R50_NW BOM_R64_NE BOM_R64_SE BOM_R64_SW BOM_R64_NW BOM_ROCI BOM_POCI BOM_EYE BOM_POS_METHOD BOM_PRES_METHOD NADI_LAT NADI_LON NADI_CAT NADI_WIND NADI_PRES WELLINGTON_LAT WELLINGTON_LON WELLINGTON_WIND WELLINGTON_PRES DS824_LAT DS824_LON DS824_STAGE DS824_WIND DS824_PRES TD9636_LAT TD9636_LON TD9636_STAGE TD9636_WIND TD9636_PRES TD9635_LAT TD9635_LON TD9635_WIND TD9635_PRES TD9635_ROCI NEUMANN_LAT NEUMANN_LON NEUMANN_CLASS NEUMANN_WIND NEUMANN_PRES MLC_LAT MLC_LON MLC_CLASS MLC_WIND MLC_PRES USA_GUST BOM_GUST BOM_GUST_PER REUNION_GUST REUNION_GUST_PER USA_SEAHGT USA_SEARAD_NE USA_SEARAD_SE USA_SEARAD_SW USA_SEARAD_NW STORM_SPEED STORM_DIR
1871237N18325 1871 18 NA NA NOT_NAMED 1871-08-24 12:00:00 TS 17.5000 -35.0000 main 1895 1895 _____________O -1 17.5000 -35.0000 TS 35 11 312
1871237N18325 1871 18 NA NA NOT_NAMED 1871-08-24 15:00:00 TS 17.8602 -35.4121 main 1943 1943 _____________P -1 17.8602 -35.4121 TS 35 10 313
1871237N18325 1871 18 NA NA NOT_NAMED 1871-08-24 18:00:00 TS 18.2000 -35.8000 main 1980 1980 _____________O -1 18.2000 -35.8000 TS 35 10 313
1871237N18325 1871 18 NA NA NOT_NAMED 1871-08-24 21:00:00 TS 18.5073 -36.1502 main 2015 2013 _____________P -1 18.5073 -36.1502 TS 37 9 312
1871237N18325 1871 18 NA NA NOT_NAMED 1871-08-25 00:00:00 TS 18.8000 -36.5000 main 2040 2040 _____________O -1 18.8000 -36.5000 TS 40 9 310
1871237N18325 1871 18 NA NA NOT_NAMED 1871-08-25 03:00:00 TS 19.1000 -36.9001 main 2076 2076 _____________P -1 19.1000 -36.9001 TS 40 10 308
1871237N18325 1871 18 NA NA NOT_NAMED 1871-08-25 06:00:00 TS 19.4000 -37.3000 main 2113 2113 _____________O -1 19.4000 -37.3000 TS 40 9 310
1871237N18325 1871 18 NA NA NOT_NAMED 1871-08-25 09:00:00 TS 19.6923 -37.6503 main 2150 2149 _____________P -1 19.6923 -37.6503 TS 42 9 312
1871237N18325 1871 18 NA NA NOT_NAMED 1871-08-25 12:00:00 TS 20.0000 -38.0000 main 2178 2178 _____________O -1 20.0000 -38.0000 TS 45 10 313
1871237N18325 1871 18 NA NA NOT_NAMED 1871-08-25 15:00:00 TS 20.3500 -38.4000 main 2215 2215 _____________P -1 20.3500 -38.4000 TS 47 10 313
1871237N18325 1871 18 NA NA NOT_NAMED 1871-08-25 18:00:00 TS 20.7000 -38.8000 main 2254 2254 _____________O -1 20.7000 -38.8000 TS 50 10 313
1871237N18325 1871 18 NA NA NOT_NAMED 1871-08-25 21:00:00 TS 21.0073 -39.1503 main 2281 2281 _____________P -1 21.0073 -39.1503 TS 52 9 313
1871237N18325 1871 18 NA NA NOT_NAMED 1871-08-26 00:00:00 TS 21.3000 -39.5000 main 2290 2283 _____________O -1 21.3000 -39.5000 TS 55 9 310
1871237N18325 1871 18 NA NA NOT_NAMED 1871-08-26 03:00:00 TS 21.6000 -39.9001 main 2290 2286 _____________P -1 21.6000 -39.9001 TS 57 10 309
1871237N18325 1871 18 NA NA NOT_NAMED 1871-08-26 06:00:00 TS 21.9000 -40.3000 main 2291 2285 _____________O -1 21.9000 -40.3000 TS 60 9 310
1871237N18325 1871 18 NA NA NOT_NAMED 1871-08-26 09:00:00 TS 22.1924 -40.6652 main 2293 2293 _____________P -1 22.1924 -40.6652 TS 60 9 313
1871237N18325 1871 18 NA NA NOT_NAMED 1871-08-26 12:00:00 TS 22.5000 -41.0000 main 2303 2303 _____________O -1 22.5000 -41.0000 TS 60 9 318
1871237N18325 1871 18 NA NA NOT_NAMED 1871-08-26 15:00:00 TS 22.8499 -41.3076 main 2314 2314 _____________P -1 22.8499 -41.3076 TS 65 9 322
1871237N18325 1871 18 NA NA NOT_NAMED 1871-08-26 18:00:00 TS 23.2000 -41.6000 main 2335 2335 _____________O -1 23.2000 -41.6000 HU 70 9 320
1871237N18325 1871 18 NA NA NOT_NAMED 1871-08-26 21:00:00 TS 23.5074 -41.9002 main 2347 2347 _____________P -1 23.5074 -41.9002 HU 72 8 318
1871237N18325 1871 18 NA NA NOT_NAMED 1871-08-27 00:00:00 TS 23.8000 -42.2000 main 2361 2356 _____________O -1 23.8000 -42.2000 HU 75 8 317
1871237N18325 1871 18 NA NA NOT_NAMED 1871-08-27 03:00:00 TS 24.0999 -42.5001 main 2375 2375 _____________P -1 24.0999 -42.5001 HU 75 8 318
1871237N18325 1871 18 NA NA NOT_NAMED 1871-08-27 06:00:00 TS 24.4000 -42.8000 main 2390 2390 _____________O -1 24.4000 -42.8000 HU 75 8 317
1871237N18325 1871 18 NA NA NOT_NAMED 1871-08-27 09:00:00 TS 24.7150 -43.1224 main 2405 2401 _____________P -1 24.7150 -43.1224 HU 75 8 318
1871237N18325 1871 18 NA NA NOT_NAMED 1871-08-27 12:00:00 TS 25.0000 -43.4000 main 2405 2390 _____________O -1 25.0000 -43.4000 HU 75 6 321
1871237N18325 1871 18 NA NA NOT_NAMED 1871-08-27 15:00:00 TS 25.2149 -43.5728 main 2390 2383 _____________P -1 25.2149 -43.5728 HU 75 5 326
1871237N18325 1871 18 NA NA NOT_NAMED 1871-08-27 18:00:00 TS 25.4000 -43.7000 main 2386 2379 _____________O -1 25.4000 -43.7000 HU 75 5 327
1871237N18325 1871 18 NA NA NOT_NAMED 1871-08-27 21:00:00 TS 25.6000 -43.8501 main 2373 2366 _____________P -1 25.6000 -43.8501 HU 77 5 326
1871237N18325 1871 18 NA NA NOT_NAMED 1871-08-28 00:00:00 TS 25.8000 -44.0000 main 2369 2363 _____________O -1 25.8000 -44.0000 HU 80 5 326
1871237N18325 1871 18 NA NA NOT_NAMED 1871-08-28 03:00:00 TS 26.0075 -44.1575 main 2356 2350 _____________P -1 26.0075 -44.1575 HU 80 5 326
1871237N18325 1871 18 NA NA NOT_NAMED 1871-08-28 06:00:00 TS 26.2000 -44.3000 main 2353 2347 _____________O -1 26.2000 -44.3000 HU 80 4 326
1871237N18325 1871 18 NA NA NOT_NAMED 1871-08-28 09:00:00 TS 26.3575 -44.4225 main 2350 2341 _____________P -1 26.3575 -44.4225 HU 80 4 329
1871237N18325 1871 18 NA NA NOT_NAMED 1871-08-28 12:00:00 TS 26.5000 -44.5000 main 2344 2344 _____________O -1 26.5000 -44.5000 HU 80 3 346
1871237N18325 1871 18 NA NA NOT_NAMED 1871-08-28 15:00:00 TS 26.6575 -44.5151 main 2344 2333 _____________P -1 26.6575 -44.5151 HU 80 3 0
1871237N18325 1871 18 NA NA NOT_NAMED 1871-08-28 18:00:00 TS 26.8000 -44.5000 main 2333 2323 _____________O -1 26.8000 -44.5000 HU 80 2 6
1871237N18325 1871 18 NA NA NOT_NAMED 1871-08-28 21:00:00 TS 26.9000 -44.5000 main 2323 2312 _____________P -1 26.9000 -44.5000 HU 77 2 8
1871237N18325 1871 18 NA NA NOT_NAMED 1871-08-29 00:00:00 TS 27.0000 -44.5000 main 2312 2301 _____________O -1 27.0000 -44.5000 HU 75 3 2
1871237N18325 1871 18 NA NA NOT_NAMED 1871-08-29 03:00:00 TS 27.1500 -44.5000 main 2291 2280 _____________P -1 27.1500 -44.5000 HU 75 3 0
1871237N18325 1871 18 NA NA NOT_NAMED 1871-08-29 06:00:00 TS 27.3000 -44.5000 main 2280 2269 _____________O -1 27.3000 -44.5000 HU 75 3 0
1871237N18325 1871 18 NA NA NOT_NAMED 1871-08-29 09:00:00 TS 27.4075 -44.5075 main 2269 2259 _____________P -1 27.4075 -44.5075 HU 75 2 8
1871237N18325 1871 18 NA NA NOT_NAMED 1871-08-29 12:00:00 TS 27.5000 -44.5000 main 2259 2248 _____________O -1 27.5000 -44.5000 HU 75 2 13
1871237N18325 1871 18 NA NA NOT_NAMED 1871-08-29 15:00:00 TS 27.6075 -44.4650 main 2248 2240 _____________P -1 27.6075 -44.4650 HU 75 2 25
1871237N18325 1871 18 NA NA NOT_NAMED 1871-08-29 18:00:00 TS 27.7000 -44.4000 main 2240 2233 _____________O -1 27.7000 -44.4000 HU 75 2 44
1871237N18325 1871 18 NA NA NOT_NAMED 1871-08-29 21:00:00 TS 27.7575 -44.3000 main 2233 2233 _____________P -1 27.7575 -44.3000 HU 75 2 60
1871237N18325 1871 18 NA NA NOT_NAMED 1871-08-30 00:00:00 TS 27.8000 -44.2000 main 2236 2236 _____________O -1 27.8000 -44.2000 HU 75 2 55
1871237N18325 1871 18 NA NA NOT_NAMED 1871-08-30 03:00:00 TS 27.8500 -44.1425 main 2239 2228 _____________P -1 27.8500 -44.1425 HU 75 1 40
1871237N18325 1871 18 NA NA NOT_NAMED 1871-08-30 06:00:00 TS 27.9000 -44.1000 main 2228 2228 _____________O -1 27.9000 -44.1000 HU 75 1 0
1871237N18325 1871 18 NA NA NOT_NAMED 1871-08-30 09:00:00 TS 27.9197 -44.1171 main 2228 2217 _____________P -1 27.9197 -44.1171 HU 75 1 40
1871237N18325 1871 18 NA NA NOT_NAMED 1871-08-30 12:00:00 TS 28.0000 -44.0000 main 2221 2209 _____________O -1 28.0000 -44.0000 HU 75 6 58
1871237N18325 1871 18 NA NA NOT_NAMED 1871-08-30 15:00:00 TS 28.2203 -43.5679 main 2212 2198 _____________P -1 28.2203 -43.5679 HU 72 10 60
1871237N18325 1871 18 NA NA NOT_NAMED 1871-08-30 18:00:00 TS 28.5000 -43.0000 main 2201 2191 _____________O -1 28.5000 -43.0000 HU 70 11 61
1871237N18325 1871 18 NA NA NOT_NAMED 1871-08-30 21:00:00 TS 28.7498 -42.4998 main 2198 2182 _____________P -1 28.7498 -42.4998 HU 67 10 60
1871237N18325 1871 18 NA NA NOT_NAMED 1871-08-31 00:00:00 TS 29.0000 -42.0000 main 2186 2177 _____________O -1 29.0000 -42.0000 HU 65 10 60
1871237N18325 1871 18 NA NA NOT_NAMED 1871-08-31 03:00:00 TS 29.2498 -41.4998 main 2185 2171 _____________P -1 29.2498 -41.4998 HU 57 10 60
1871237N18325 1871 18 NA NA NOT_NAMED 1871-08-31 06:00:00 TS 29.5000 -41.0000 main 2175 2172 _____________O -1 29.5000 -41.0000 TS 50 10 63
1871237N18325 1871 18 NA NA NOT_NAMED 1871-08-31 09:00:00 TS 29.6821 -40.5134 main 2177 2169 _____________P -1 29.6821 -40.5134 TS 45 10 60
1871237N18325 1871 18 NA NA NOT_NAMED 1871-08-31 12:00:00 TS 30.0000 -40.0000 main 2169 2133 _____________O -1 30.0000 -40.0000 TS 40 14 45
1871237N18325 1871 18 NA NA NOT_NAMED 1871-08-31 15:00:00 TS 30.6326 -39.4082 main 2138 2091 _____________P -1 30.6326 -39.4082 TS 37 17 36
1871237N18325 1871 18 NA NA NOT_NAMED 1871-08-31 18:00:00 TS 31.4000 -38.8000 main 2091 2050 _____________O -1 31.4000 -38.8000 TS 35 18 34
1871237N18325 1871 18 NA NA NOT_NAMED 1871-08-31 21:00:00 TS 32.0998 -38.2269 main 2056 2019 _____________P -1 32.0998 -38.2269 TS 32 17 34
1871237N18325 1871 18 NA NA NOT_NAMED 1871-09-01 00:00:00 TS 32.8000 -37.7000 main 2019 1978 _____________O -1 32.8000 -37.7000 TD 30 16 30
1871237N18325 1871 18 NA NA NOT_NAMED 1871-09-01 03:00:00 TS 33.5068 -37.2633 main 1978 1947 _____________P -1 33.5068 -37.2633 TD 30 16 28
1871237N18325 1871 18 NA NA NOT_NAMED 1871-09-01 06:00:00 TS 34.2000 -36.8000 main 1947 1926 _____________O -1 34.2000 -36.8000 TD 30 16 33
1871237N18325 1871 18 NA NA NOT_NAMED 1871-09-01 09:00:00 TS 34.8612 -36.1978 main 1924 1914 _____________P -1 34.8612 -36.1978 TD 30 17 39
1871237N18325 1871 18 NA NA NOT_NAMED 1871-09-01 12:00:00 TS 35.5000 -35.5000 main 1919 _____________O -1 35.5000 -35.5000 TD 30 17 42

About IBTrACS Database

This database is a web-friendly format of International Best Track Archive for Climate Stewardship (IBTrACS), a global best track data archive curated by NOAA dating back to 1842.

Updated: 2021-12-01